Hankinson, North Dakota
Current Conditions -  °F | °C
As of 4:55 AM on Wednesday 26 Nov 2014 (Local Time) from KBWP Reporting Station
Overcast Overcast  
Wind Chill:   Ceiling: 1800
Heat Index: 16°   Visibility: 4mi
Dew Point: 12°   Wind: 17mph
Humidity: 86%   Direction: 360°N
Pressure: 30.16"   Gusts: NA
Location:  46.07°N, 96.9°W
Report Text: KBWP 261055Z AUTO 36015KT 4SM SCT009 BKN018 OVC031 M09/M11 A3016 RMK AO1
Loading
Personal Weather Stations






























Interactive Weather Map New forecast layout! Learn more

10-Day Weather Forecast

Advertisements
Track Severe Weather on mobile